createdAt,value
2016-06-26T00:00:49.038Z,1004.73
2016-06-26T00:04:03.399Z,1004.75
2016-06-26T00:07:16.994Z,1004.75
2016-06-26T00:10:29.183Z,1004.65
2016-06-26T00:13:43.550Z,1004.84
2016-06-26T00:16:58.094Z,1004.86
2016-06-26T00:20:12.447Z,1004.86
2016-06-26T00:23:26.727Z,1004.88
2016-06-26T00:26:41.182Z,1005.02
2016-06-26T00:29:55.523Z,1005.1
2016-06-26T00:33:09.704Z,1005.4
2016-06-26T00:36:23.954Z,1005.5
2016-06-26T00:39:40.603Z,1005.64
2016-06-26T00:42:46.250Z,1005.66
2016-06-26T00:46:00.502Z,1005.6
2016-06-26T00:49:14.627Z,1005.64
2016-06-26T00:52:29.022Z,1005.58
2016-06-26T00:55:44.120Z,1005.58
2016-06-26T00:58:48.626Z,1005.62
2016-06-26T01:02:03.892Z,1005.64
2016-06-26T01:05:18.471Z,1005.76
2016-06-26T01:08:37.018Z,1005.78
2016-06-26T01:11:42.849Z,1005.94
2016-06-26T01:14:57.490Z,1005.94
2016-06-26T01:18:09.021Z,1006.06
2016-06-26T01:21:23.464Z,1006.2
2016-06-26T01:24:39.054Z,1006.18
2016-06-26T01:27:44.805Z,1006.3
2016-06-26T01:30:57.969Z,1006.34
2016-06-26T01:34:12.297Z,1006.38
2016-06-26T01:37:26.568Z,1006.5
2016-06-26T01:40:44.870Z,1006.59
2016-06-26T01:43:50.641Z,1006.5
2016-06-26T01:47:05.091Z,1006.52
2016-06-26T01:50:17.548Z,1006.67
2016-06-26T01:53:35.747Z,1006.65
2016-06-26T01:56:41.414Z,1006.77
2016-06-26T01:59:55.574Z,1006.87
2016-06-26T02:03:09.918Z,1006.99
2016-06-26T02:06:23.785Z,1007.09
2016-06-26T02:09:41.884Z,1007.21
2016-06-26T02:12:47.695Z,1007.21
2016-06-26T02:16:01.954Z,1007.17
2016-06-26T02:19:15.848Z,1007.15
2016-06-26T02:22:30.043Z,1007.19
2016-06-26T02:25:44.227Z,1007.15
2016-06-26T02:28:56.093Z,1007.17
2016-06-26T02:32:10.262Z,1007.17
2016-06-26T02:35:24.507Z,1007.31
2016-06-26T02:38:42.796Z,1007.33
2016-06-26T02:41:48.468Z,1007.31
2016-06-26T02:45:02.618Z,1007.41
2016-06-26T02:48:17.031Z,1007.43
2016-06-26T02:51:27.498Z,1007.51
2016-06-26T02:54:43.999Z,1007.61
2016-06-26T02:57:49.208Z,1007.59
2016-06-26T03:01:02.521Z,1007.67
2016-06-26T03:04:17.517Z,1007.69
2016-06-26T03:07:35.643Z,1007.77
2016-06-26T03:10:41.283Z,1007.73
2016-06-26T03:13:55.841Z,1007.71
2016-06-26T03:17:10.186Z,1007.67
2016-06-26T03:20:24.064Z,1007.73
2016-06-26T03:23:41.965Z,1007.69
2016-06-26T03:26:47.425Z,1007.63
2016-06-26T03:30:01.508Z,1007.63
2016-06-26T03:33:15.741Z,1007.47
2016-06-26T03:36:29.831Z,1007.45
2016-06-26T03:39:43.871Z,1007.61
2016-06-26T03:42:58.115Z,1007.63
2016-06-26T03:46:12.227Z,1007.75
2016-06-26T03:49:26.391Z,1007.91
2016-06-26T03:52:44.235Z,1008
2016-06-26T03:55:49.583Z,1007.97
2016-06-26T03:59:03.693Z,1007.98
2016-06-26T04:02:17.976Z,1008.04
2016-06-26T04:05:28.335Z,1008.2
2016-06-26T04:08:42.518Z,1008.16
2016-06-26T04:11:56.318Z,1008.22
2016-06-26T04:15:10.462Z,1008.18
2016-06-26T04:18:23.818Z,1008.3
2016-06-26T04:21:42.112Z,1008.22
2016-06-26T04:24:47.449Z,1008.26
2016-06-26T04:28:01.466Z,1008.5
2016-06-26T04:31:15.378Z,1008.54
2016-06-26T04:34:28.954Z,1008.64
2016-06-26T04:37:42.961Z,1008.76
2016-06-26T04:40:56.934Z,1008.82
2016-06-26T04:44:10.961Z,1008.72
2016-06-26T04:47:23.907Z,1008.84
2016-06-26T04:50:41.804Z,1008.88
2016-06-26T04:53:47.028Z,1008.92
2016-06-26T04:56:57.211Z,1008.88
2016-06-26T05:00:07.328Z,1008.92
2016-06-26T05:03:21.088Z,1008.72
2016-06-26T05:06:38.991Z,1008.86
2016-06-26T05:09:44.209Z,1008.9
2016-06-26T05:12:57.783Z,1009.04
2016-06-26T05:16:11.768Z,1008.92
2016-06-26T05:19:24.304Z,1008.86
2016-06-26T05:22:39.530Z,1009.02
2016-06-26T05:25:44.643Z,1009.02
2016-06-26T05:28:58.289Z,1009.02
2016-06-26T05:32:12.314Z,1009.04
2016-06-26T05:35:26.054Z,1009.04
2016-06-26T05:38:44.049Z,1009.12
2016-06-26T05:41:49.279Z,1009.06
2016-06-26T05:45:03.254Z,1009.1
2016-06-26T05:48:17.290Z,1009.14
2016-06-26T05:51:28.315Z,1009.06
2016-06-26T05:54:42.257Z,1009.28
2016-06-26T05:57:56.085Z,1009.36
2016-06-26T06:01:10.016Z,1009.4
2016-06-26T06:04:24.140Z,1009.4
2016-06-26T06:07:42.125Z,1009.4
2016-06-26T06:10:47.310Z,1009.58
2016-06-26T06:14:01.223Z,1009.54
2016-06-26T06:17:15.285Z,1009.6
2016-06-26T06:20:29.315Z,1009.64
2016-06-26T06:23:43.212Z,1009.5
2016-06-26T06:26:57.266Z,1009.7
2016-06-26T06:30:11.713Z,1009.68
2016-06-26T06:33:25.639Z,1009.66
2016-06-26T06:36:43.723Z,1009.64
2016-06-26T06:39:49.169Z,1009.72
2016-06-26T06:43:02.079Z,1009.8
2016-06-26T06:46:16.082Z,1009.8
2016-06-26T06:49:30.338Z,1009.85
2016-06-26T06:52:44.006Z,1009.78
2016-06-26T06:55:58.535Z,1009.46
2016-06-26T06:59:13.156Z,1009.42
2016-06-26T07:02:28.053Z,1009.68
2016-06-26T07:05:42.529Z,1009.66
2016-06-26T07:08:57.061Z,1009.78
2016-06-26T07:12:11.254Z,1009.82
2016-06-26T07:15:25.388Z,1009.93
2016-06-26T07:18:43.725Z,1009.82
2016-06-26T07:21:49.726Z,1009.52
2016-06-26T07:25:03.868Z,1009.42
2016-06-26T07:28:19.954Z,1009.68
2016-06-26T07:31:38.937Z,1009.32
2016-06-26T07:34:45.094Z,1009.34
2016-06-26T07:38:00.166Z,1009.38
2016-06-26T07:41:15.469Z,1009.32
2016-06-26T07:44:30.578Z,1009.66
2016-06-26T07:47:45.439Z,1009.82
2016-06-26T07:51:00.024Z,1010.07
2016-06-26T07:54:14.911Z,1009.54
2016-06-26T07:57:30.230Z,1009.8
2016-06-26T08:00:44.790Z,1009.62
2016-06-26T08:03:56.536Z,1010.15
2016-06-26T08:07:10.996Z,1010.39
2016-06-26T08:10:25.632Z,1010.35
2016-06-26T08:13:44.044Z,1010.43
2016-06-26T08:16:49.946Z,1010.47
2016-06-26T08:20:02.627Z,1010.43
2016-06-26T08:23:16.651Z,1010.27
2016-06-26T08:26:31.650Z,1010.15
2016-06-26T08:29:46.749Z,1010.01
2016-06-26T08:33:02.183Z,1010.03
2016-06-26T08:36:17.345Z,1010.01
2016-06-26T08:39:36.651Z,1010.35
2016-06-26T08:42:42.966Z,1010.43
2016-06-26T08:45:57.906Z,1010.13
2016-06-26T08:49:12.609Z,1010.11
2016-06-26T08:52:28.155Z,1010.49
2016-06-26T08:55:45.045Z,1010.41
2016-06-26T08:58:51.653Z,1010.25
2016-06-26T09:02:07.151Z,1010.41
2016-06-26T09:05:22.504Z,1010.35
2016-06-26T09:08:41.233Z,1010.27
2016-06-26T09:11:47.751Z,1010.25
2016-06-26T09:15:03.309Z,1010.53
2016-06-26T09:18:17.987Z,1010.73
2016-06-26T09:21:36.594Z,1010.81
2016-06-26T09:24:42.505Z,1010.81
2016-06-26T09:27:57.158Z,1010.87
2016-06-26T09:31:11.566Z,1010.89
2016-06-26T09:34:26.195Z,1010.77
2016-06-26T09:37:44.751Z,1011.01
2016-06-26T09:40:51.010Z,1010.87
2016-06-26T09:44:06.207Z,1010.89
2016-06-26T09:47:21.268Z,1010.89
2016-06-26T09:50:38.113Z,1011.11
2016-06-26T09:53:43.936Z,1010.89
2016-06-26T09:56:59.041Z,1011.07
2016-06-26T10:00:13.315Z,1010.99
2016-06-26T10:03:27.983Z,1011.15
2016-06-26T10:06:42.485Z,1011.11
2016-06-26T10:09:57.243Z,1011.11
2016-06-26T10:13:11.155Z,1011.09
2016-06-26T10:16:25.942Z,1011.11
2016-06-26T10:19:44.390Z,1011.05
2016-06-26T10:22:50.377Z,1011.15
2016-06-26T10:26:04.976Z,1011.01
2016-06-26T10:29:19.238Z,1011.15
2016-06-26T10:32:37.737Z,1011.15
2016-06-26T10:35:43.780Z,1011.13
2016-06-26T10:38:57.687Z,1011.09
2016-06-26T10:42:12.151Z,1011.09
2016-06-26T10:45:26.608Z,1010.99
2016-06-26T10:48:45.152Z,1011.03
2016-06-26T10:51:51.003Z,1011.05
2016-06-26T10:55:05.350Z,1011.13
2016-06-26T10:58:19.706Z,1011.09
2016-06-26T11:01:38.154Z,1011.01
2016-06-26T11:04:44.102Z,1011.03
2016-06-26T11:07:58.575Z,1011.13
2016-06-26T11:11:13.152Z,1011.25
2016-06-26T11:14:27.760Z,1011.17
2016-06-26T11:17:43.942Z,1011.17
2016-06-26T11:20:49.824Z,1011.19
2016-06-26T11:24:04.394Z,1011.19
2016-06-26T11:27:18.849Z,1011.05
2016-06-26T11:30:37.168Z,1011.21
2016-06-26T11:33:43.037Z,1011.11
2016-06-26T11:36:55.513Z,1011.13
2016-06-26T11:40:06.224Z,1011.03
2016-06-26T11:43:20.799Z,1011.07
2016-06-26T11:46:39.248Z,1011.21
2016-06-26T11:49:45.136Z,1010.99
2016-06-26T11:52:59.270Z,1010.91
2016-06-26T11:56:13.636Z,1010.91
2016-06-26T11:59:26.842Z,1010.91
2016-06-26T12:02:46.096Z,1010.85
2016-06-26T12:05:51.838Z,1010.91
2016-06-26T12:09:06.223Z,1010.89
2016-06-26T12:12:20.471Z,1010.81
2016-06-26T12:15:32.934Z,1010.93
2016-06-26T12:18:47.095Z,1010.95
2016-06-26T12:21:59.635Z,1010.83
2016-06-26T12:25:13.945Z,1010.85
2016-06-26T12:28:28.259Z,1010.87
2016-06-26T12:31:46.645Z,1010.75
2016-06-26T12:34:52.279Z,1010.89
2016-06-26T12:38:06.629Z,1010.83
2016-06-26T12:41:20.855Z,1010.83
2016-06-26T12:44:39.310Z,1010.77
2016-06-26T12:47:45.146Z,1010.75
2016-06-26T12:50:59.687Z,1010.81
2016-06-26T12:54:14.013Z,1010.85
2016-06-26T12:57:28.451Z,1010.83
2016-06-26T13:00:46.734Z,1010.73
2016-06-26T13:03:52.462Z,1010.69
2016-06-26T13:07:06.764Z,1010.69
2016-06-26T13:10:19.367Z,1010.63
2016-06-26T13:13:37.764Z,1010.65
2016-06-26T13:16:43.631Z,1010.67
2016-06-26T13:19:58.096Z,1010.67
2016-06-26T13:23:12.590Z,1010.59
2016-06-26T13:26:26.701Z,1010.61
2016-06-26T13:29:45.175Z,1010.65
2016-06-26T13:32:51.043Z,1010.61
2016-06-26T13:36:05.435Z,1010.61
2016-06-26T13:39:20.164Z,1010.59
2016-06-26T13:42:38.318Z,1010.53
2016-06-26T13:45:44.071Z,1010.55
2016-06-26T13:48:58.601Z,1010.59
2016-06-26T13:52:12.856Z,1010.63
2016-06-26T13:55:27.091Z,1010.67
2016-06-26T13:58:45.655Z,1010.53
2016-06-26T14:01:51.497Z,1010.63
2016-06-26T14:05:04.783Z,1010.53
2016-06-26T14:08:17.026Z,1010.67
2016-06-26T14:11:29.739Z,1010.59
2016-06-26T14:14:47.857Z,1010.63
2016-06-26T14:17:53.652Z,1010.47
2016-06-26T14:21:08.123Z,1010.49
2016-06-26T14:24:22.773Z,1010.39
2016-06-26T14:27:41.137Z,1010.33
2016-06-26T14:30:46.892Z,1010.33
2016-06-26T14:34:01.031Z,1010.39
2016-06-26T14:37:12.305Z,1010.43
2016-06-26T14:40:26.873Z,1010.29
2016-06-26T14:43:45.243Z,1010.31
2016-06-26T14:46:51.035Z,1010.37
2016-06-26T14:50:05.572Z,1010.39
2016-06-26T14:53:20.103Z,1010.45
2016-06-26T14:56:38.333Z,1010.47
2016-06-26T14:59:48.040Z,1010.41
2016-06-26T15:02:53.762Z,1010.41
2016-06-26T15:06:08.224Z,1010.39
2016-06-26T15:09:22.891Z,1010.35
2016-06-26T15:12:41.350Z,1010.39
2016-06-26T15:15:46.981Z,1010.33
2016-06-26T15:19:01.153Z,1010.33
2016-06-26T15:22:15.471Z,1010.41
2016-06-26T15:25:30.006Z,1010.41
2016-06-26T15:28:44.296Z,1010.35
2016-06-26T15:31:57.596Z,1010.41
2016-06-26T15:35:13.114Z,1010.29
2016-06-26T15:38:27.614Z,1010.41
2016-06-26T15:41:46.049Z,1010.27
2016-06-26T15:44:51.772Z,1010.31
2016-06-26T15:48:05.947Z,1010.37
2016-06-26T15:51:20.187Z,1010.29
2016-06-26T15:54:34.376Z,1010.25
2016-06-26T15:57:46.166Z,1010.33
2016-06-26T16:00:59.981Z,1010.35
2016-06-26T16:04:14.187Z,1010.29
2016-06-26T16:07:28.393Z,1010.27
2016-06-26T16:10:46.372Z,1010.35
2016-06-26T16:13:52.058Z,1010.27
2016-06-26T16:17:02.726Z,1010.27
2016-06-26T16:20:16.938Z,1010.21
2016-06-26T16:23:31.289Z,1010.31
2016-06-26T16:26:45.686Z,1010.23
2016-06-26T16:30:00.091Z,1010.27
2016-06-26T16:33:14.608Z,1010.27
2016-06-26T16:36:27.770Z,1010.17
2016-06-26T16:39:46.087Z,1010.15
2016-06-26T16:42:51.916Z,1010.21
2016-06-26T16:46:02.452Z,1010.17
2016-06-26T16:49:16.883Z,1010.25
2016-06-26T16:52:31.288Z,1010.29
2016-06-26T16:55:45.695Z,1010.19
2016-06-26T16:59:00.242Z,1010.19
2016-06-26T17:02:14.562Z,1010.17
2016-06-26T17:05:28.886Z,1010.19
2016-06-26T17:08:47.202Z,1010.17
2016-06-26T17:11:52.843Z,1010.23
2016-06-26T17:15:06.097Z,1010.39
2016-06-26T17:18:20.431Z,1010.29
2016-06-26T17:21:34.656Z,1010.17
2016-06-26T17:24:46.943Z,1010.15
2016-06-26T17:28:00.967Z,1010.19
2016-06-26T17:31:14.934Z,1010.23
2016-06-26T17:34:29.306Z,1010.21
2016-06-26T17:37:47.068Z,1010.27
2016-06-26T17:40:52.770Z,1010.23
2016-06-26T17:44:04.509Z,1010.29
2016-06-26T17:47:17.699Z,1010.25
2016-06-26T17:50:32.130Z,1010.29
2016-06-26T17:53:46.473Z,1010.27
2016-06-26T17:57:00.728Z,1010.31
2016-06-26T18:00:15.030Z,1010.35
2016-06-26T18:03:29.369Z,1010.37
2016-06-26T18:06:47.675Z,1010.27
2016-06-26T18:09:53.380Z,1010.33
2016-06-26T18:13:07.705Z,1010.45
2016-06-26T18:16:21.820Z,1010.53
2016-06-26T18:19:40.057Z,1010.47
2016-06-26T18:22:45.723Z,1010.49
2016-06-26T18:26:00.110Z,1010.51
2016-06-26T18:29:14.367Z,1010.47
2016-06-26T18:32:28.495Z,1010.43
2016-06-26T18:35:46.455Z,1010.37
2016-06-26T18:38:52.121Z,1010.41
2016-06-26T18:42:06.245Z,1010.33
2016-06-26T18:45:20.283Z,1010.45
2016-06-26T18:48:34.766Z,1010.41
2016-06-26T18:51:48.580Z,1010.49
2016-06-26T18:55:02.861Z,1010.41
2016-06-26T18:58:16.841Z,1010.43
2016-06-26T19:01:27.782Z,1010.49
2016-06-26T19:04:45.626Z,1010.49
2016-06-26T19:07:51.062Z,1010.47
2016-06-26T19:11:05.086Z,1010.47
2016-06-26T19:12:30.298Z,1010.43
2016-06-26T19:15:46.359Z,1010.39
2016-06-26T19:18:51.767Z,1010.41
2016-06-26T19:22:05.876Z,1010.45
2016-06-26T19:25:19.638Z,1010.51
2016-06-26T19:28:33.744Z,1010.49
2016-06-26T19:31:47.873Z,1010.51
2016-06-26T19:35:02.002Z,1010.51
2016-06-26T19:38:16.069Z,1010.59
2016-06-26T19:41:30.012Z,1010.67
2016-06-26T19:44:47.927Z,1010.65
2016-06-26T19:47:53.260Z,1010.61
2016-06-26T19:51:07.558Z,1010.73
2016-06-26T19:54:21.302Z,1010.75
2016-06-26T19:57:39.173Z,1010.85
2016-06-26T20:00:48.273Z,1010.85
2016-06-26T20:03:53.597Z,1010.77
2016-06-26T20:07:07.527Z,1010.85
2016-06-26T20:10:21.574Z,1010.89
2016-06-26T20:13:39.483Z,1010.83
2016-06-26T20:16:48.648Z,1010.95
2016-06-26T20:19:53.827Z,1011.11
2016-06-26T20:23:04.836Z,1010.99
2016-06-26T20:26:18.869Z,1011.03
2016-06-26T20:29:28.971Z,1010.93
2016-06-26T20:32:46.962Z,1011.03
2016-06-26T20:35:52.055Z,1010.99
2016-06-26T20:39:06.180Z,1010.93
2016-06-26T20:42:19.371Z,1010.89
2016-06-26T20:45:33.063Z,1011.01
2016-06-26T20:48:46.932Z,1010.91
2016-06-26T20:52:00.925Z,1010.93
2016-06-26T20:55:14.579Z,1011.09
2016-06-26T20:58:28.317Z,1011.07
2016-06-26T21:01:45.397Z,1011.07
2016-06-26T21:04:50.375Z,1011.29
2016-06-26T21:08:02.386Z,1011.15
2016-06-26T21:11:16.057Z,1011.21
2016-06-26T21:14:29.691Z,1011.15
2016-06-26T21:17:47.502Z,1011.29
2016-06-26T21:20:52.497Z,1011.25
2016-06-26T21:24:02.729Z,1011.29
2016-06-26T21:27:16.467Z,1011.23
2016-06-26T21:30:30.194Z,1011.23
2016-06-26T21:33:47.624Z,1011.23
2016-06-26T21:36:51.834Z,1011.17
2016-06-26T21:40:04.960Z,1011.27
2016-06-26T21:43:18.071Z,1011.23
2016-06-26T21:46:29.945Z,1011.23
2016-06-26T21:49:46.697Z,1011.31
2016-06-26T21:52:51.335Z,1011.27
2016-06-26T21:56:04.543Z,1011.35
2016-06-26T21:59:17.521Z,1011.37
2016-06-26T22:02:30.014Z,1011.39
2016-06-26T22:05:46.260Z,1011.49
2016-06-26T22:08:50.236Z,1011.37
2016-06-26T22:12:03.181Z,1011.29
2016-06-26T22:15:16.382Z,1011.35
2016-06-26T22:18:29.477Z,1011.25
2016-06-26T22:21:46.725Z,1011.33
2016-06-26T22:24:51.221Z,1011.19
2016-06-26T22:28:02.917Z,1011.23
2016-06-26T22:31:15.648Z,1011.17
2016-06-26T22:34:28.722Z,1011.21
2016-06-26T22:37:44.009Z,1011.27
2016-06-26T22:40:47.941Z,1011.19
2016-06-26T22:44:01.403Z,1011.27
2016-06-26T22:47:14.554Z,1011.27
2016-06-26T22:50:27.950Z,1011.15
2016-06-26T22:53:45.335Z,1011.09
2016-06-26T22:56:49.964Z,1011.13
2016-06-26T23:00:03.323Z,1011.09
2016-06-26T23:03:16.815Z,1011.13
2016-06-26T23:06:30.197Z,1011.07
2016-06-26T23:09:47.659Z,1011.07
2016-06-26T23:12:52.098Z,1010.95
2016-06-26T23:16:05.365Z,1010.99
2016-06-26T23:19:18.749Z,1011.05
2016-06-26T23:22:32.074Z,1011.05
2016-06-26T23:25:49.226Z,1011.01
2016-06-26T23:28:53.794Z,1011.01
2016-06-26T23:32:05.846Z,1011.05
2016-06-26T23:35:20.447Z,1011.11
2016-06-26T23:38:33.583Z,1011.13
2016-06-26T23:41:46.924Z,1011.17
2016-06-26T23:45:00.385Z,1011.11
2016-06-26T23:48:13.615Z,1011.09
2016-06-26T23:51:27.035Z,1011.05
2016-06-26T23:54:44.051Z,1011.09
2016-06-26T23:57:48.632Z,1011.01
